createdAt,value
2023-05-18T00:00:14.448Z,4.60
2023-05-18T00:02:42.953Z,3.70
2023-05-18T00:05:11.636Z,4.43
2023-05-18T00:07:41.071Z,4.00
2023-05-18T00:10:10.756Z,3.90
2023-05-18T00:12:38.850Z,3.93
2023-05-18T00:15:09.976Z,4.50
2023-05-18T00:17:38.067Z,4.00
2023-05-18T00:20:10.318Z,3.30
2023-05-18T00:22:39.158Z,3.50
2023-05-18T00:25:07.722Z,3.47
2023-05-18T00:27:35.703Z,4.23
2023-05-18T00:30:05.736Z,3.80
2023-05-18T00:32:35.056Z,3.50
2023-05-18T00:35:02.996Z,3.50
2023-05-18T00:37:30.891Z,3.07
2023-05-18T00:39:58.810Z,3.13
2023-05-18T00:42:27.033Z,3.80
2023-05-18T00:44:55.007Z,3.50
2023-05-18T00:47:23.437Z,3.40
2023-05-18T00:49:52.733Z,3.00
2023-05-18T00:52:21.442Z,2.77
2023-05-18T00:54:50.358Z,3.20
2023-05-18T00:57:19.129Z,3.20
2023-05-18T00:59:48.115Z,3.70
2023-05-18T01:02:16.926Z,3.97
2023-05-18T01:04:44.871Z,3.30
2023-05-18T01:07:16.623Z,3.30
2023-05-18T01:09:44.758Z,3.20
2023-05-18T01:12:22.465Z,3.57
2023-05-18T01:14:55.353Z,3.47
2023-05-18T01:17:33.706Z,3.53
2023-05-18T01:20:13.104Z,3.20
2023-05-18T01:23:10.215Z,3.10
2023-05-18T01:25:49.530Z,3.60
2023-05-18T01:28:22.587Z,3.47
2023-05-18T01:30:51.919Z,2.63
2023-05-18T01:33:19.982Z,2.60
2023-05-18T01:35:49.041Z,2.23
2023-05-18T01:38:18.878Z,2.73
2023-05-18T01:40:54.231Z,2.60
2023-05-18T01:43:31.134Z,2.63
2023-05-18T01:46:06.100Z,2.70
2023-05-18T01:48:39.036Z,2.50
2023-05-18T01:51:10.901Z,2.50
2023-05-18T01:53:42.999Z,2.77
2023-05-18T01:56:13.730Z,2.77
2023-05-18T01:58:44.361Z,2.80
2023-05-18T02:01:12.876Z,2.60
2023-05-18T02:03:40.932Z,2.97
2023-05-18T02:06:09.082Z,2.63
2023-05-18T02:08:38.185Z,3.10
2023-05-18T02:11:06.180Z,3.10
2023-05-18T02:13:36.826Z,2.83
2023-05-18T02:16:06.735Z,3.03
2023-05-18T02:18:36.450Z,3.20
2023-05-18T02:21:05.118Z,3.00
2023-05-18T02:23:33.932Z,3.10
2023-05-18T02:26:02.666Z,3.50
2023-05-18T02:28:30.770Z,3.80
2023-05-18T02:31:08.136Z,3.43
2023-05-18T02:33:40.217Z,4.00
2023-05-18T02:36:12.469Z,3.80
2023-05-18T02:38:42.197Z,4.13
2023-05-18T02:41:10.608Z,4.13
2023-05-18T02:43:39.344Z,5.77
2023-05-18T02:46:10.178Z,4.63
2023-05-18T02:48:38.188Z,5.03
2023-05-18T02:51:06.357Z,4.60
2023-05-18T02:53:34.962Z,4.50
2023-05-18T02:56:09.678Z,5.30
2023-05-18T02:59:04.046Z,5.33
2023-05-18T03:01:41.072Z,5.50
2023-05-18T03:04:09.559Z,5.77
2023-05-18T03:06:42.798Z,5.10
2023-05-18T03:09:11.683Z,4.50
2023-05-18T03:11:43.261Z,5.20
2023-05-18T03:14:11.564Z,5.17
2023-05-18T03:16:40.914Z,5.10
2023-05-18T03:19:15.943Z,4.53
2023-05-18T03:21:44.076Z,4.10
2023-05-18T03:24:14.970Z,4.33
2023-05-18T03:26:45.622Z,5.17
2023-05-18T03:29:13.848Z,4.50
2023-05-18T03:31:44.033Z,4.77
2023-05-18T03:34:13.766Z,5.47
2023-05-18T03:36:47.371Z,5.03
2023-05-18T03:39:15.929Z,5.37
2023-05-18T03:41:43.865Z,4.90
2023-05-18T03:44:11.913Z,4.50
2023-05-18T03:46:39.861Z,4.40
2023-05-18T03:49:09.400Z,3.80
2023-05-18T03:51:42.070Z,3.77
2023-05-18T03:54:09.968Z,4.17
2023-05-18T03:56:38.046Z,3.70
2023-05-18T03:59:06.587Z,3.70
2023-05-18T04:01:35.316Z,3.30
2023-05-18T04:04:03.450Z,3.20
2023-05-18T04:06:35.346Z,3.37
2023-05-18T04:09:04.788Z,3.33
2023-05-18T04:11:32.934Z,2.70
2023-05-18T04:14:01.408Z,3.30
2023-05-18T04:16:29.524Z,2.97
2023-05-18T04:18:57.584Z,3.50
2023-05-18T04:21:25.625Z,3.17
2023-05-18T04:23:54.883Z,3.50
2023-05-18T04:26:22.816Z,3.13
2023-05-18T04:28:52.549Z,3.33
2023-05-18T04:31:20.493Z,3.27
2023-05-18T04:33:51.364Z,3.27
2023-05-18T04:36:21.304Z,2.87
2023-05-18T04:38:50.777Z,3.10
2023-05-18T04:41:22.225Z,3.17
2023-05-18T04:43:50.595Z,3.50
2023-05-18T04:46:18.888Z,3.40
2023-05-18T04:48:49.883Z,3.60
2023-05-18T04:51:18.122Z,3.30
2023-05-18T04:53:46.130Z,3.10
2023-05-18T04:56:15.029Z,3.57
2023-05-18T04:58:46.116Z,3.83
2023-05-18T05:01:15.367Z,3.47
2023-05-18T05:03:43.846Z,4.60
2023-05-18T05:06:15.932Z,3.97
2023-05-18T05:08:44.009Z,4.57
2023-05-18T05:11:12.646Z,3.97
2023-05-18T05:13:40.548Z,4.30
2023-05-18T05:16:09.951Z,4.67
2023-05-18T05:18:37.954Z,4.53
2023-05-18T05:21:06.484Z,5.10
2023-05-18T05:23:35.586Z,4.70
2023-05-18T05:26:03.804Z,6.60
2023-05-18T05:28:32.949Z,6.40
2023-05-18T05:31:00.877Z,4.63
2023-05-18T05:33:30.200Z,4.23
2023-05-18T05:35:58.131Z,5.50
2023-05-18T05:38:26.312Z,5.00
2023-05-18T05:40:54.270Z,6.07
2023-05-18T05:43:22.243Z,6.53
2023-05-18T05:45:51.479Z,4.67
2023-05-18T05:48:19.878Z,5.60
2023-05-18T05:50:49.745Z,4.10
2023-05-18T05:53:19.758Z,4.80
2023-05-18T05:55:48.769Z,5.20
2023-05-18T05:58:19.157Z,5.10
2023-05-18T06:00:52.300Z,8.30
2023-05-18T06:03:21.425Z,5.70
2023-05-18T06:05:51.691Z,6.00
2023-05-18T06:08:24.158Z,5.77
2023-05-18T06:10:52.774Z,5.17
2023-05-18T06:13:21.017Z,4.80
2023-05-18T06:15:51.844Z,5.37
2023-05-18T06:18:19.857Z,5.47
2023-05-18T06:20:51.135Z,4.90
2023-05-18T06:23:22.788Z,5.60
2023-05-18T06:26:02.966Z,5.47
2023-05-18T06:28:47.870Z,6.10
2023-05-18T06:31:34.947Z,5.53
2023-05-18T06:34:15.502Z,5.43
2023-05-18T06:36:44.928Z,5.70
2023-05-18T06:39:13.001Z,5.53
2023-05-18T06:41:41.114Z,6.10
2023-05-18T06:44:09.189Z,5.20
2023-05-18T06:46:37.780Z,6.40
2023-05-18T06:49:16.201Z,5.80
2023-05-18T06:51:46.404Z,5.53
2023-05-18T06:54:15.143Z,5.97
2023-05-18T06:56:43.315Z,5.40
2023-05-18T06:59:11.322Z,5.23
2023-05-18T07:01:40.059Z,5.50
2023-05-18T07:04:08.671Z,5.20
2023-05-18T07:06:36.685Z,5.20
2023-05-18T07:09:08.058Z,4.83
2023-05-18T07:11:36.073Z,5.30
2023-05-18T07:14:04.078Z,6.10
2023-05-18T07:16:32.155Z,4.90
2023-05-18T07:19:00.171Z,5.20
2023-05-18T07:21:28.145Z,5.40
2023-05-18T07:23:56.170Z,4.53
2023-05-18T07:26:26.157Z,4.63
2023-05-18T07:28:54.134Z,4.40
2023-05-18T07:31:22.595Z,4.80
2023-05-18T07:33:50.645Z,4.30
2023-05-18T07:36:18.653Z,4.80
2023-05-18T07:38:46.629Z,5.00
2023-05-18T07:41:14.528Z,4.90
2023-05-18T07:43:43.779Z,5.13
2023-05-18T07:46:11.741Z,5.00
2023-05-18T07:48:41.023Z,5.37
2023-05-18T07:51:09.230Z,4.60
2023-05-18T07:53:37.920Z,4.27
2023-05-18T07:56:07.077Z,4.93
2023-05-18T07:58:35.293Z,4.60
2023-05-18T08:01:04.950Z,4.60
2023-05-18T08:03:33.071Z,5.33
2023-05-18T08:06:01.301Z,4.30
2023-05-18T08:08:29.742Z,4.40
2023-05-18T08:10:58.316Z,4.37
2023-05-18T08:13:26.627Z,4.50
2023-05-18T08:16:09.838Z,4.97
2023-05-18T08:18:41.305Z,4.60
2023-05-18T08:21:10.232Z,5.10
2023-05-18T08:23:38.940Z,4.77
2023-05-18T08:26:08.245Z,4.43
2023-05-18T08:28:36.444Z,4.03
2023-05-18T08:31:04.418Z,3.90
2023-05-18T08:33:33.331Z,4.03
2023-05-18T08:36:02.666Z,3.57
2023-05-18T08:38:31.956Z,4.03
2023-05-18T08:41:07.126Z,3.87
2023-05-18T08:43:39.039Z,3.47
2023-05-18T08:46:12.395Z,2.77
2023-05-18T08:48:42.667Z,3.00
2023-05-18T08:51:14.272Z,3.30
2023-05-18T08:53:43.280Z,3.30
2023-05-18T08:56:12.726Z,3.20
2023-05-18T08:58:45.938Z,2.80
2023-05-18T09:01:14.932Z,3.13
2023-05-18T09:03:43.277Z,3.00
2023-05-18T09:06:12.752Z,2.57
2023-05-18T09:08:41.920Z,2.50
2023-05-18T09:11:10.021Z,2.80
2023-05-18T09:13:39.204Z,2.57
2023-05-18T09:16:08.803Z,2.90
2023-05-18T09:18:36.870Z,2.70
2023-05-18T09:21:04.983Z,2.60
2023-05-18T09:23:34.582Z,2.80
2023-05-18T09:26:04.843Z,2.63
2023-05-18T09:28:36.567Z,2.80
2023-05-18T09:31:04.963Z,2.90
2023-05-18T09:33:35.290Z,2.80
2023-05-18T09:36:05.071Z,2.50
2023-05-18T09:38:38.222Z,2.20
2023-05-18T09:41:10.795Z,2.23
2023-05-18T09:43:38.777Z,2.23
2023-05-18T09:46:10.593Z,2.77
2023-05-18T09:48:43.057Z,2.77
2023-05-18T09:51:11.916Z,2.60
2023-05-18T09:53:41.661Z,2.40
2023-05-18T09:56:12.182Z,2.43
2023-05-18T09:58:40.792Z,2.77
2023-05-18T10:01:08.738Z,2.50
2023-05-18T10:03:38.763Z,2.87
2023-05-18T10:06:08.250Z,2.67
2023-05-18T10:08:37.177Z,2.40
2023-05-18T10:11:07.420Z,2.37
2023-05-18T10:13:35.912Z,2.50
2023-05-18T10:16:05.602Z,2.63
2023-05-18T10:18:35.975Z,3.13
2023-05-18T10:21:05.945Z,2.57
2023-05-18T10:23:35.927Z,2.97
2023-05-18T10:26:09.900Z,6.53
2023-05-18T10:28:42.308Z,2.60
2023-05-18T10:31:10.734Z,2.80
2023-05-18T10:33:39.339Z,2.90
2023-05-18T10:36:08.472Z,2.10
2023-05-18T10:38:39.914Z,2.60
2023-05-18T10:41:12.642Z,2.30
2023-05-18T10:43:42.526Z,2.70
2023-05-18T10:46:10.803Z,2.13
2023-05-18T10:48:40.520Z,2.20
2023-05-18T10:51:09.276Z,2.40
2023-05-18T10:53:37.853Z,2.30
2023-05-18T10:56:07.896Z,2.23
2023-05-18T10:58:39.586Z,2.03
2023-05-18T11:01:12.508Z,2.30
2023-05-18T11:03:40.930Z,2.40
2023-05-18T11:06:10.873Z,2.50
2023-05-18T11:08:48.191Z,2.40
2023-05-18T11:11:18.896Z,2.30
2023-05-18T11:13:51.841Z,2.37
2023-05-18T11:16:20.701Z,2.13
2023-05-18T11:18:51.563Z,2.23
2023-05-18T11:21:31.278Z,3.00
2023-05-18T11:24:36.553Z,2.53
2023-05-18T11:27:13.123Z,2.30
2023-05-18T11:29:44.993Z,2.20
2023-05-18T11:32:29.727Z,2.20
2023-05-18T11:34:59.205Z,2.43
2023-05-18T11:37:49.686Z,2.40
2023-05-18T11:40:48.115Z,2.40
2023-05-18T11:43:21.789Z,2.40
2023-05-18T11:45:57.304Z,2.60
2023-05-18T11:48:29.830Z,2.30
2023-05-18T11:50:58.468Z,2.43
2023-05-18T11:53:27.696Z,2.30
2023-05-18T11:55:56.631Z,2.20
2023-05-18T11:58:26.231Z,2.10
2023-05-18T12:00:56.438Z,3.27
2023-05-18T12:03:25.896Z,2.17
2023-05-18T12:05:54.815Z,1.90
2023-05-18T12:08:29.508Z,2.27
2023-05-18T12:10:58.123Z,2.20
2023-05-18T12:13:27.346Z,2.37
2023-05-18T12:15:59.027Z,2.50
2023-05-18T12:18:29.497Z,2.10
2023-05-18T12:20:57.376Z,2.30
2023-05-18T12:23:36.951Z,2.30
2023-05-18T12:26:05.064Z,2.23
2023-05-18T12:28:32.962Z,2.30
2023-05-18T12:31:07.228Z,2.47
2023-05-18T12:33:35.336Z,3.00
2023-05-18T12:36:03.150Z,2.70
2023-05-18T12:38:32.792Z,2.50
2023-05-18T12:41:00.685Z,2.53
2023-05-18T12:43:28.609Z,3.20
2023-05-18T12:45:56.534Z,2.30
2023-05-18T12:48:26.648Z,2.80
2023-05-18T12:50:55.574Z,2.77
2023-05-18T12:53:24.094Z,2.10
2023-05-18T12:55:59.605Z,2.23
2023-05-18T12:58:27.513Z,2.23
2023-05-18T13:00:55.350Z,2.47
2023-05-18T13:03:24.341Z,2.10
2023-05-18T13:06:05.540Z,2.70
2023-05-18T13:08:34.838Z,2.47
2023-05-18T13:11:12.583Z,2.20
2023-05-18T13:13:58.969Z,4.20
2023-05-18T13:16:27.097Z,5.63
2023-05-18T13:18:59.551Z,3.13
2023-05-18T13:21:29.057Z,2.50
2023-05-18T13:23:56.987Z,2.70
2023-05-18T13:26:26.114Z,2.63
2023-05-18T13:28:56.478Z,3.17
2023-05-18T13:31:25.135Z,2.80
2023-05-18T13:33:53.216Z,2.23
2023-05-18T13:36:21.212Z,2.20
2023-05-18T13:38:52.201Z,2.80
2023-05-18T13:41:20.186Z,2.50
2023-05-18T13:43:48.029Z,2.60
2023-05-18T13:46:15.923Z,2.50
2023-05-18T13:48:43.851Z,2.17
2023-05-18T13:51:11.778Z,2.30
2023-05-18T13:53:40.889Z,2.50
2023-05-18T13:56:10.420Z,2.10
2023-05-18T13:58:38.451Z,2.60
2023-05-18T14:01:08.734Z,2.20
2023-05-18T14:03:37.725Z,2.70
2023-05-18T14:06:05.903Z,2.60
2023-05-18T14:08:33.842Z,2.30
2023-05-18T14:11:01.687Z,2.23
2023-05-18T14:13:31.017Z,2.00
2023-05-18T14:15:58.907Z,2.40
2023-05-18T14:18:26.772Z,2.57
2023-05-18T14:20:54.822Z,3.83
2023-05-18T14:23:24.371Z,2.83
2023-05-18T14:25:52.257Z,2.17
2023-05-18T14:28:20.070Z,2.53
2023-05-18T14:30:49.283Z,2.70
2023-05-18T14:33:17.121Z,2.60
2023-05-18T14:35:45.109Z,2.70
2023-05-18T14:38:12.992Z,2.80
2023-05-18T14:40:41.052Z,2.70
2023-05-18T14:43:08.923Z,3.40
2023-05-18T14:45:36.786Z,2.20
2023-05-18T14:48:06.221Z,2.80
2023-05-18T14:50:37.436Z,2.53
2023-05-18T14:53:06.350Z,3.33
2023-05-18T14:55:34.229Z,3.00
2023-05-18T14:58:04.553Z,2.70
2023-05-18T15:00:33.449Z,3.30
2023-05-18T15:03:01.921Z,3.17
2023-05-18T15:05:31.298Z,3.33
2023-05-18T15:07:59.198Z,2.90
2023-05-18T15:10:27.072Z,3.20
2023-05-18T15:12:54.930Z,2.83
2023-05-18T15:15:25.253Z,3.90
2023-05-18T15:17:54.482Z,3.30
2023-05-18T15:20:23.593Z,3.23
2023-05-18T15:22:52.883Z,3.30
2023-05-18T15:25:20.980Z,3.20
2023-05-18T15:27:49.252Z,3.40
2023-05-18T15:30:17.119Z,3.40
2023-05-18T15:32:45.420Z,3.87
2023-05-18T15:35:16.082Z,3.47
2023-05-18T15:37:43.922Z,3.40
2023-05-18T15:40:13.432Z,4.20
2023-05-18T15:42:41.286Z,3.50
2023-05-18T15:45:09.832Z,3.47
2023-05-18T15:47:37.816Z,3.40
2023-05-18T15:50:06.666Z,3.37
2023-05-18T15:52:34.572Z,3.97
2023-05-18T15:55:02.437Z,4.50
2023-05-18T15:57:31.638Z,4.37
2023-05-18T15:59:59.462Z,4.30
2023-05-18T16:02:27.381Z,4.70
2023-05-18T16:04:55.258Z,4.90
2023-05-18T16:07:23.074Z,3.20
2023-05-18T16:09:51.004Z,3.60
2023-05-18T16:12:18.832Z,3.40
2023-05-18T16:14:48.210Z,3.43
2023-05-18T16:17:16.080Z,5.47
2023-05-18T16:19:43.939Z,6.27
2023-05-18T16:22:11.819Z,4.23
2023-05-18T16:24:40.300Z,3.93
2023-05-18T16:27:08.681Z,3.30
2023-05-18T16:29:36.728Z,3.60
2023-05-18T16:32:08.149Z,3.70
2023-05-18T16:34:36.066Z,3.70
2023-05-18T16:37:03.907Z,3.70
2023-05-18T16:39:31.782Z,3.53
2023-05-18T16:41:59.609Z,3.50
2023-05-18T16:44:27.447Z,3.40
2023-05-18T16:46:55.346Z,4.13
2023-05-18T16:49:24.593Z,3.60
2023-05-18T16:51:52.901Z,5.90
2023-05-18T16:54:20.862Z,4.03
2023-05-18T16:56:48.720Z,3.87
2023-05-18T16:59:16.608Z,4.20
2023-05-18T17:01:44.570Z,3.50
2023-05-18T17:04:12.580Z,3.33
2023-05-18T17:06:42.104Z,5.50
2023-05-18T17:09:09.966Z,3.30
2023-05-18T17:11:37.887Z,3.53
2023-05-18T17:14:05.750Z,4.63
2023-05-18T17:16:40.146Z,3.80
2023-05-18T17:19:08.182Z,3.50
2023-05-18T17:21:36.243Z,3.40
2023-05-18T17:24:06.116Z,3.67
2023-05-18T17:26:33.998Z,3.10
2023-05-18T17:29:01.961Z,3.20
2023-05-18T17:31:30.494Z,3.23
2023-05-18T17:33:58.677Z,3.63
2023-05-18T17:36:26.922Z,3.60
2023-05-18T17:38:56.139Z,4.13
2023-05-18T17:41:25.990Z,3.10
2023-05-18T17:43:53.916Z,3.50
2023-05-18T17:46:21.875Z,3.10
2023-05-18T17:48:49.760Z,3.50
2023-05-18T17:51:17.659Z,3.50
2023-05-18T17:53:45.733Z,4.07
2023-05-18T17:56:13.781Z,3.60
2023-05-18T17:58:42.964Z,3.90
2023-05-18T18:01:12.166Z,4.20
2023-05-18T18:03:40.346Z,6.50
2023-05-18T18:06:08.658Z,3.87
2023-05-18T18:08:36.901Z,3.97
2023-05-18T18:11:06.322Z,3.87
2023-05-18T18:13:35.678Z,4.10
2023-05-18T18:16:05.371Z,3.90
2023-05-18T18:18:36.031Z,3.80
2023-05-18T18:21:04.222Z,3.83
2023-05-18T18:23:32.550Z,3.67
2023-05-18T18:26:00.848Z,3.47
2023-05-18T18:28:29.327Z,4.07
2023-05-18T18:30:58.111Z,4.20
2023-05-18T18:33:28.033Z,4.30
2023-05-18T18:35:57.710Z,3.97
2023-05-18T18:38:27.079Z,5.23
2023-05-18T18:40:57.753Z,5.13
2023-05-18T18:43:27.675Z,4.37
2023-05-18T18:45:57.290Z,4.33
2023-05-18T18:48:27.045Z,3.50
2023-05-18T18:50:54.959Z,4.07
2023-05-18T18:53:23.033Z,4.57
2023-05-18T18:55:51.341Z,3.57
2023-05-18T18:58:19.558Z,4.07
2023-05-18T19:00:47.469Z,4.57
2023-05-18T19:03:16.097Z,4.37
2023-05-18T19:05:45.508Z,4.50
2023-05-18T19:08:13.724Z,4.13
2023-05-18T19:10:41.662Z,4.70
2023-05-18T19:13:09.613Z,4.20
2023-05-18T19:15:38.307Z,3.90
2023-05-18T19:18:07.689Z,6.00
2023-05-18T19:20:35.887Z,6.90
2023-05-18T19:23:05.683Z,5.97
2023-05-18T19:25:33.866Z,6.47
2023-05-18T19:28:02.070Z,7.53
2023-05-18T19:30:30.029Z,4.70
2023-05-18T19:32:57.989Z,7.30
2023-05-18T19:35:25.965Z,7.03
2023-05-18T19:37:53.890Z,7.13
2023-05-18T19:40:23.185Z,7.40
2023-05-18T19:42:53.516Z,5.50
2023-05-18T19:45:21.543Z,5.70
2023-05-18T19:47:49.502Z,6.33
2023-05-18T19:50:17.614Z,6.70
2023-05-18T19:52:45.875Z,4.77
2023-05-18T19:55:13.815Z,3.80
2023-05-18T19:57:43.215Z,3.83
2023-05-18T20:00:11.964Z,3.03
2023-05-18T20:02:42.696Z,2.70
2023-05-18T20:05:12.633Z,2.83
2023-05-18T20:07:41.065Z,2.70
2023-05-18T20:10:09.001Z,2.83
2023-05-18T20:12:36.925Z,2.90
2023-05-18T20:15:08.713Z,3.50
2023-05-18T20:17:37.712Z,3.00
2023-05-18T20:20:06.166Z,3.00
2023-05-18T20:22:34.041Z,2.77
2023-05-18T20:25:05.388Z,3.67
2023-05-18T20:27:33.345Z,3.10
2023-05-18T20:30:01.289Z,2.80
2023-05-18T20:32:32.690Z,3.30
2023-05-18T20:35:00.758Z,3.37
2023-05-18T20:37:28.707Z,3.27
2023-05-18T20:39:57.398Z,3.50
2023-05-18T20:42:31.874Z,2.97
2023-05-18T20:44:59.877Z,3.20
2023-05-18T20:47:29.609Z,3.33
2023-05-18T20:49:59.305Z,3.87
2023-05-18T20:52:27.283Z,3.43
2023-05-18T20:54:55.294Z,3.23
2023-05-18T20:57:31.507Z,3.73
2023-05-18T20:59:59.429Z,2.97
2023-05-18T21:02:27.429Z,3.83
2023-05-18T21:04:57.647Z,3.57
2023-05-18T21:07:27.016Z,3.30
2023-05-18T21:09:54.937Z,3.33
2023-05-18T21:12:22.862Z,3.10
2023-05-18T21:14:50.928Z,3.37
2023-05-18T21:17:18.936Z,3.20
2023-05-18T21:19:46.832Z,3.00
2023-05-18T21:22:14.721Z,3.07
2023-05-18T21:24:43.987Z,3.40
2023-05-18T21:27:12.034Z,2.90
2023-05-18T21:29:39.972Z,3.20
2023-05-18T21:32:08.526Z,2.77
2023-05-18T21:34:36.594Z,3.50
2023-05-18T21:37:04.589Z,3.20
2023-05-18T21:39:32.523Z,2.63
2023-05-18T21:42:02.619Z,2.70
2023-05-18T21:44:30.685Z,2.53
2023-05-18T21:46:58.751Z,2.50
2023-05-18T21:49:26.674Z,2.57
2023-05-18T21:51:56.084Z,2.50
2023-05-18T21:54:24.032Z,2.70
2023-05-18T21:56:51.982Z,2.67
2023-05-18T21:59:21.448Z,2.70
2023-05-18T22:01:49.352Z,2.77
2023-05-18T22:04:18.324Z,2.80
2023-05-18T22:06:46.351Z,2.77
2023-05-18T22:09:14.332Z,2.70
2023-05-18T22:11:42.223Z,2.80
2023-05-18T22:14:10.157Z,2.90
2023-05-18T22:16:39.552Z,2.57
2023-05-18T22:19:07.618Z,2.53
2023-05-18T22:21:35.551Z,2.70
2023-05-18T22:24:03.542Z,2.97
2023-05-18T22:26:31.618Z,2.60
2023-05-18T22:28:59.641Z,2.70
2023-05-18T22:31:28.006Z,2.80
2023-05-18T22:33:57.344Z,2.70
2023-05-18T22:36:25.275Z,2.70
2023-05-18T22:38:53.242Z,2.60
2023-05-18T22:41:21.954Z,3.10
2023-05-18T22:43:49.851Z,2.73
2023-05-18T22:46:17.909Z,2.83
2023-05-18T22:48:45.901Z,2.67
2023-05-18T22:51:15.819Z,3.17
2023-05-18T22:53:44.885Z,2.83
2023-05-18T22:56:12.834Z,2.93
2023-05-18T22:58:40.728Z,3.07
2023-05-18T23:01:08.611Z,2.60
2023-05-18T23:03:36.498Z,2.80
2023-05-18T23:06:04.473Z,2.97
2023-05-18T23:08:36.998Z,3.10
2023-05-18T23:11:05.920Z,3.13
2023-05-18T23:13:37.395Z,3.60
2023-05-18T23:16:06.153Z,4.00
2023-05-18T23:18:34.153Z,4.50
2023-05-18T23:21:03.146Z,4.90
2023-05-18T23:23:31.055Z,4.57
2023-05-18T23:26:00.845Z,4.70
2023-05-18T23:28:29.776Z,4.20
2023-05-18T23:30:57.743Z,4.20
2023-05-18T23:33:26.541Z,4.17
2023-05-18T23:35:56.622Z,4.30
2023-05-18T23:38:34.850Z,4.07
2023-05-18T23:41:05.460Z,3.87
2023-05-18T23:43:33.933Z,3.67
2023-05-18T23:46:02.397Z,3.40
2023-05-18T23:48:31.001Z,3.50
2023-05-18T23:51:02.406Z,4.00
2023-05-18T23:53:31.360Z,3.80
2023-05-18T23:56:00.321Z,3.60
2023-05-18T23:58:33.053Z,3.80
